Cumming, IA

7:37 AM CST on February 06, 2016 (GMT -0600)
Ashua Estates | | Change Station
CLOSE
Current Station
Personal Weather Station
Location: West Des Moines, IA
Elevation: 955 ft
Nearby Weather Stations

Elev 955 ft 41.57 °N, 93.75 °W | Updated 8 seconds ago

Overcast
Overcast
29.7 °F
Feels Like 30 °F
N
2.7
Wind Variable Wind from West
Gusts 2.7 mph

Today
High -- | Low -- °F
--% Chance of Precip.
Yesterday
High -- | Low -- °F
Precip. -- in
Pressure 30.24 in
Visibility 5.0 miles
Clouds Mostly Cloudy 700 ft
Mostly Cloudy 2100 ft
Overcast 12000 ft
Windchill 30 °F
Dew Point 29 °F
Humidity 98%
Rainfall 0.00 in
Snow Depth Not available.
7:21 AM 5:36 PM
Waning Crescent, 5% visible
SPECI KDSM 061306Z 25004KT 5SM BR BKN007 BKN021 OVC120 M02/M04 A3024 RMK AO2 T10221044
Pressure 30.24 in
Visibility 5.0 miles
Clouds Mostly Cloudy 700 ft
Mostly Cloudy 2100 ft
Overcast 12000 ft
Windchill 30 °F
Dew Point 29 °F
Humidity 98%
Rainfall 0.00 in
Snow Depth Not available.
7:21 AM 5:36 PM
Waning Crescent, 5% visible
SPECI KDSM 061306Z 25004KT 5SM BR BKN007 BKN021 OVC120 M02/M04 A3024 RMK AO2 T10221044

10-Day Weather Forecast

Almanac

Astronomy

Feb. 06, 2016 Rise Set
Actual Time
Civil Twilight
Nautical Twilight
Astronomical Twilight
Moon
Length of Visible Light
Length of Day
Tomorrow will be .
, % of the Moon is Illuminated

Today's Extremes

State Highs State Lows

Community

WunderPhotos

Upload Photos

1,890,971 photos uploaded!

WunderBlog® & News

Nearby

Air Quality

  Air Quality AQ Index Pollutant
Not available.

Snow Depth

Station Depth Elevation

Earthquake Activity

City Distance Mag. Time & Date
Minimum magnitude displayed is 2.5.

Coastal Water Temperatures

Place Temperature

Stations

Nearby Weather Stations

Station Location Temp. Windchill Dew Point Humidity Wind Precip. Elev Updated Type
                   

Watches & Warnings

There are currently no watches in effect.